Time;durP1;ratioP1;P1;durP2;ratioP2;P2;SDS_P1;SDS_P2;PMS_P1;PMS_P2;Temp;Humidity;BMP_temperature;BMP_pressure;BME280_temperature;BME280_humidity;BME280_pressure;Samples;Min_cycle;Max_cycle;Signal;HPM_P1;HPM_P2
2022/07/27 00:01:24;;;;;;;2.80;1.20;;;;;;;;;;4916646;29;20142;-69
2022/07/27 00:03:51;;;;;;;2.70;1.30;;;;;;;;;;4916658;29;20080;-69
2022/07/27 00:06:18;;;;;;;2.50;1.60;;;;;;;;;;4916412;29;20534;-68
2022/07/27 00:08:44;;;;;;;1.75;1.25;;;;;;;;;;4920182;29;20404;-68
2022/07/27 00:11:11;;;;;;;3.30;1.67;;;;;;;;;;4916318;29;20052;-68
2022/07/27 00:13:38;;;;;;;4.05;1.52;;;;;;;;;;4916685;29;20570;-69
2022/07/27 00:16:05;;;;;;;2.85;1.33;;;;;;;;;;4917185;29;20056;-69
2022/07/27 00:18:31;;;;;;;3.95;1.88;;;;;;;;;;4917084;29;20052;-69
2022/07/27 00:20:58;;;;;;;2.20;1.65;;;;;;;;;;4917414;29;20059;-70
2022/07/27 00:23:25;;;;;;;3.72;1.40;;;;;;;;;;4918298;29;20415;-69
2022/07/27 00:25:51;;;;;;;2.60;1.48;;;;;;;;;;4916401;29;20511;-69
2022/07/27 00:28:18;;;;;;;3.25;1.55;;;;;;;;;;4915786;29;20059;-68
2022/07/27 00:30:45;;;;;;;1.98;1.55;;;;;;;;;;4915917;29;20415;-69
2022/07/27 00:33:11;;;;;;;4.88;1.63;;;;;;;;;;4914959;29;20137;-69
2022/07/27 00:35:42;;;;;;;4.20;1.67;;;;;;;;;;4916111;29;20404;-68
2022/07/27 00:38:09;;;;;;;2.15;1.17;;;;;;;;;;4926457;29;20503;-68
2022/07/27 00:40:36;;;;;;;2.05;1.50;;;;;;;;;;4935191;29;20051;-68
2022/07/27 00:43:02;;;;;;;4.53;1.80;;;;;;;;;;4934802;29;20055;-69
2022/07/27 00:45:29;;;;;;;2.33;1.55;;;;;;;;;;4934941;29;20075;-69
2022/07/27 00:47:56;;;;;;;4.05;1.50;;;;;;;;;;4924650;29;20056;-68
2022/07/27 00:50:22;;;;;;;3.47;1.98;;;;;;;;;;4915789;29;20049;-68
2022/07/27 00:52:49;;;;;;;1.42;1.20;;;;;;;;;;4915782;29;20078;-69
2022/07/27 00:55:16;;;;;;;3.35;1.70;;;;;;;;;;4915632;29;20051;-69
2022/07/27 00:57:42;;;;;;;4.35;1.92;;;;;;;;;;4922291;29;20052;-68
2022/07/27 01:00:28;;;;;;;3.08;2.00;;;;;;;;;;4934762;29;20055;-69
2022/07/27 01:02:54;;;;;;;3.47;1.88;;;;;;;;;;4934692;29;20058;-68
2022/07/27 01:05:23;;;;;;;4.00;1.63;;;;;;;;;;4934536;29;20079;-68
2022/07/27 01:08:01;;;;;;;2.60;1.50;;;;;;;;;;4923441;29;20107;-68
2022/07/27 01:10:28;;;;;;;3.55;2.00;;;;;;;;;;4898662;29;20048;-69
2022/07/27 01:12:54;;;;;;;2.28;1.80;;;;;;;;;;4915693;29;20059;-69
2022/07/27 01:15:21;;;;;;;4.32;1.83;;;;;;;;;;4914521;29;20476;-69
2022/07/27 01:17:48;;;;;;;2.80;1.55;;;;;;;;;;4923463;29;20059;-68
2022/07/27 01:20:14;;;;;;;2.28;1.58;;;;;;;;;;4934370;29;20063;-68
2022/07/27 01:22:41;;;;;;;2.95;1.88;;;;;;;;;;4934711;29;20052;-70
2022/07/27 01:25:09;;;;;;;2.33;1.75;;;;;;;;;;4934336;29;20052;-69
2022/07/27 01:27:35;;;;;;;2.97;2.15;;;;;;;;;;4934404;29;20075;-68
2022/07/27 01:30:25;;;;;;;3.88;1.80;;;;;;;;;;4934034;29;20423;-69
2022/07/27 01:32:49;;;;;;;3.70;1.73;;;;;;;;;;4934419;29;20540;-69
2022/07/27 01:35:16;;;;;;;2.75;1.80;;;;;;;;;;4934498;29;20063;-69
2022/07/27 01:37:44;;;;;;;4.32;2.30;;;;;;;;;;4926682;29;20060;-68
2022/07/27 01:40:13;;;;;;;5.63;2.08;;;;;;;;;;4915403;29;20476;-68
2022/07/27 01:42:40;;;;;;;3.10;1.90;;;;;;;;;;4915305;29;20058;-69
2022/07/27 01:45:07;;;;;;;4.97;2.03;;;;;;;;;;4915179;29;20055;-69
2022/07/27 01:47:34;;;;;;;2.00;1.65;;;;;;;;;;4918874;29;20135;-68
2022/07/27 01:50:01;;;;;;;4.38;2.05;;;;;;;;;;4937112;29;20110;-69
2022/07/27 01:52:27;;;;;;;3.85;1.92;;;;;;;;;;4937823;29;20550;-69
2022/07/27 01:54:54;;;;;;;2.55;1.80;;;;;;;;;;4937075;29;20120;-69
2022/07/27 01:57:21;;;;;;;4.28;2.00;;;;;;;;;;4937710;29;20130;-69
2022/07/27 01:59:47;;;;;;;3.47;2.15;;;;;;;;;;4936176;29;20056;-69
2022/07/27 02:02:15;;;;;;;3.63;2.40;;;;;;;;;;4937861;29;20047;-68
2022/07/27 02:04:41;;;;;;;2.80;2.03;;;;;;;;;;4937571;29;20059;-71
2022/07/27 02:07:08;;;;;;;6.38;2.17;;;;;;;;;;4937522;29;20048;-69
2022/07/27 02:09:34;;;;;;;6.22;2.42;;;;;;;;;;4937386;29;20056;-69
2022/07/27 02:14:47;;;;;;;6.03;2.60;;;;;;;;;;4937181;29;20052;-69
2022/07/27 02:17:14;;;;;;;2.20;2.00;;;;;;;;;;4918592;29;20460;-69
2022/07/27 02:19:44;;;;;;;3.28;2.00;;;;;;;;;;4918137;29;20131;-69
2022/07/27 02:22:10;;;;;;;8.40;2.38;;;;;;;;;;4918416;29;20055;-69
2022/07/27 02:24:38;;;;;;;3.30;1.95;;;;;;;;;;4918114;29;20397;-69
2022/07/27 02:27:04;;;;;;;3.78;2.20;;;;;;;;;;4936734;29;20062;-69
2022/07/27 02:29:31;;;;;;;4.43;2.03;;;;;;;;;;4937066;29;20056;-68
2022/07/27 02:31:57;;;;;;;7.65;2.80;;;;;;;;;;4937313;29;20488;-69
2022/07/27 02:34:24;;;;;;;2.58;2.17;;;;;;;;;;4935948;29;20459;-69
2022/07/27 02:36:51;;;;;;;5.22;2.08;;;;;;;;;;4937056;29;20339;-69
2022/07/27 02:39:17;;;;;;;4.75;2.20;;;;;;;;;;4936611;29;20495;-68
2022/07/27 02:41:46;;;;;;;4.55;2.33;;;;;;;;;;4937177;29;20110;-68
2022/07/27 02:44:17;;;;;;;5.32;2.45;;;;;;;;;;4937098;29;20063;-69
2022/07/27 02:46:43;;;;;;;6.30;2.97;;;;;;;;;;4936894;29;20504;-69
2022/07/27 02:49:10;;;;;;;4.90;2.30;;;;;;;;;;4936432;29;20126;-69
2022/07/27 02:51:37;;;;;;;3.05;2.53;;;;;;;;;;4936732;29;20114;-68
2022/07/27 02:54:06;;;;;;;5.60;2.97;;;;;;;;;;4937193;29;20059;-69
2022/07/27 02:56:33;;;;;;;3.40;2.53;;;;;;;;;;4922916;29;20468;-68
2022/07/27 02:58:59;;;;;;;4.47;2.63;;;;;;;;;;4917645;29;20060;-69
2022/07/27 03:01:26;;;;;;;2.95;2.28;;;;;;;;;;4916837;29;20063;-68
2022/07/27 03:03:53;;;;;;;6.30;3.13;;;;;;;;;;4917764;29;20052;-68
2022/07/27 03:06:19;;;;;;;4.95;2.88;;;;;;;;;;4916505;29;20059;-69
2022/07/27 03:08:46;;;;;;;2.72;2.40;;;;;;;;;;4917702;29;20056;-68
2022/07/27 03:11:14;;;;;;;3.17;2.35;;;;;;;;;;4917540;29;20056;-69
2022/07/27 03:13:41;;;;;;;3.97;2.42;;;;;;;;;;4917437;29;20116;-69
2022/07/27 03:16:08;;;;;;;2.50;2.30;;;;;;;;;;4916265;29;20337;-68
2022/07/27 03:18:34;;;;;;;4.38;2.70;;;;;;;;;;4917079;29;20056;-67
2022/07/27 03:21:01;;;;;;;2.50;2.30;;;;;;;;;;4917137;29;20095;-68
2022/07/27 03:23:28;;;;;;;6.30;2.80;;;;;;;;;;4917389;29;20051;-68
2022/07/27 03:25:55;;;;;;;2.88;2.67;;;;;;;;;;4925163;29;20403;-68
2022/07/27 03:28:22;;;;;;;4.35;3.03;;;;;;;;;;4936006;29;20051;-69
2022/07/27 03:30:49;;;;;;;5.35;2.55;;;;;;;;;;4936094;29;20498;-68
2022/07/27 03:33:15;;;;;;;4.18;2.55;;;;;;;;;;4935987;29;20059;-68
2022/07/27 03:35:42;;;;;;;5.38;3.42;;;;;;;;;;4936389;29;20056;-68
2022/07/27 03:38:08;;;;;;;3.58;2.92;;;;;;;;;;4935816;29;20055;-68
2022/07/27 03:40:36;;;;;;;3.83;2.83;;;;;;;;;;4935945;29;20099;-68
2022/07/27 03:43:03;;;;;;;5.07;3.10;;;;;;;;;;4934784;29;20495;-68
2022/07/27 03:45:30;;;;;;;5.60;3.15;;;;;;;;;;4931887;29;20060;-69
2022/07/27 03:47:56;;;;;;;5.03;2.97;;;;;;;;;;4935410;29;20058;-69
2022/07/27 03:50:23;;;;;;;4.30;3.28;;;;;;;;;;4935153;29;20110;-68
2022/07/27 03:52:50;;;;;;;3.58;2.97;;;;;;;;;;4935895;29;20051;-68
2022/07/27 03:55:20;;;;;;;6.15;3.38;;;;;;;;;;4933628;29;20430;-69
2022/07/27 03:57:47;;;;;;;3.97;3.00;;;;;;;;;;4916639;29;20435;-68
2022/07/27 04:00:14;;;;;;;4.70;2.90;;;;;;;;;;4916512;29;20055;-68
2022/07/27 04:02:41;;;;;;;4.72;3.10;;;;;;;;;;4916431;29;20052;-68
2022/07/27 04:05:08;;;;;;;4.63;3.47;;;;;;;;;;4916768;29;20491;-68
2022/07/27 04:07:35;;;;;;;4.25;2.90;;;;;;;;;;4916444;29;20111;-69
2022/07/27 04:10:02;;;;;;;6.22;3.83;;;;;;;;;;4916402;29;20423;-68
2022/07/27 04:12:29;;;;;;;3.53;3.08;;;;;;;;;;4916155;29;20052;-68
2022/07/27 04:14:57;;;;;;;3.38;2.97;;;;;;;;;;4916291;29;20103;-68
2022/07/27 04:17:23;;;;;;;4.85;2.90;;;;;;;;;;4934260;29;20059;-69
2022/07/27 04:20:10;;;;;;;5.38;2.67;;;;;;;;;;4935281;29;20122;-69
2022/07/27 04:22:37;;;;;;;4.07;3.10;;;;;;;;;;4935282;29;20048;-68
2022/07/27 04:25:04;;;;;;;5.18;3.90;;;;;;;;;;4935005;29;20051;-68
2022/07/27 04:27:30;;;;;;;3.38;2.90;;;;;;;;;;4915967;29;20059;-68
2022/07/27 04:29:57;;;;;;;3.83;3.00;;;;;;;;;;4915847;29;20504;-68
2022/07/27 04:32:24;;;;;;;3.42;2.90;;;;;;;;;;4916131;29;20052;-69
2022/07/27 04:34:50;;;;;;;5.47;3.15;;;;;;;;;;4916296;29;20052;-69
2022/07/27 04:37:17;;;;;;;3.65;2.80;;;;;;;;;;4914853;29;20052;-69
2022/07/27 04:39:43;;;;;;;3.75;3.28;;;;;;;;;;4915751;29;20060;-69
2022/07/27 04:42:10;;;;;;;3.25;2.95;;;;;;;;;;4915751;29;20044;-69
2022/07/27 04:44:37;;;;;;;4.13;3.53;;;;;;;;;;4916044;29;20059;-69
2022/07/27 04:47:03;;;;;;;4.63;2.90;;;;;;;;;;4915927;29;20052;-69
2022/07/27 04:49:30;;;;;;;4.10;3.30;;;;;;;;;;4915473;29;20052;-68
2022/07/27 04:51:57;;;;;;;5.88;3.33;;;;;;;;;;4915762;29;20052;-69
2022/07/27 04:54:23;;;;;;;4.57;2.90;;;;;;;;;;4915656;29;20059;-69
2022/07/27 04:56:50;;;;;;;3.75;3.05;;;;;;;;;;4916062;29;20503;-69
2022/07/27 04:59:17;;;;;;;4.32;3.22;;;;;;;;;;4915684;29;20056;-70
2022/07/27 05:01:43;;;;;;;3.20;2.90;;;;;;;;;;4929136;29;20056;-69
2022/07/27 05:04:10;;;;;;;7.18;3.65;;;;;;;;;;4933433;29;20087;-69
2022/07/27 05:06:37;;;;;;;4.72;3.20;;;;;;;;;;4934592;29;20507;-69
2022/07/27 05:09:03;;;;;;;3.67;3.20;;;;;;;;;;4934266;29;20499;-69
2022/07/27 05:11:30;;;;;;;4.15;2.80;;;;;;;;;;4934466;29;20048;-69
2022/07/27 05:13:57;;;;;;;6.32;2.88;;;;;;;;;;4934708;29;20055;-69
2022/07/27 05:16:23;;;;;;;5.03;3.25;;;;;;;;;;4934651;29;20477;-69
2022/07/27 05:18:54;;;;;;;6.00;3.40;;;;;;;;;;4934547;29;20079;-69
2022/07/27 05:21:21;;;;;;;4.72;3.50;;;;;;;;;;4934549;29;20044;-69
2022/07/27 05:23:48;;;;;;;5.55;3.45;;;;;;;;;;4934932;29;20058;-67
2022/07/27 05:26:15;;;;;;;4.95;4.05;;;;;;;;;;4926834;29;20147;-68
2022/07/27 05:28:42;;;;;;;5.70;3.83;;;;;;;;;;4919224;29;20068;-68
2022/07/27 05:31:09;;;;;;;4.75;3.65;;;;;;;;;;4919298;29;20105;-67
2022/07/27 05:33:35;;;;;;;8.13;3.60;;;;;;;;;;4919239;29;20099;-67
2022/07/27 05:36:02;;;;;;;4.47;2.95;;;;;;;;;;4919194;29;20048;-67
2022/07/27 05:38:38;;;;;;;4.53;3.08;;;;;;;;;;4918689;29;20051;-67
2022/07/27 05:41:08;;;;;;;5.63;3.25;;;;;;;;;;4919368;29;20059;-67
2022/07/27 05:43:34;;;;;;;6.90;3.45;;;;;;;;;;4918977;29;20063;-67
2022/07/27 05:46:01;;;;;;;4.40;3.42;;;;;;;;;;4919066;29;20526;-68
2022/07/27 05:48:28;;;;;;;4.43;3.10;;;;;;;;;;4918585;29;20559;-67
2022/07/27 05:50:55;;;;;;;6.18;4.03;;;;;;;;;;4918813;29;20048;-68
2022/07/27 05:53:22;;;;;;;4.05;3.17;;;;;;;;;;4925645;29;20074;-68
2022/07/27 05:55:49;;;;;;;5.00;3.40;;;;;;;;;;4937986;29;20055;-68
2022/07/27 05:58:28;;;;;;;6.55;3.78;;;;;;;;;;4938073;29;20059;-68
2022/07/27 06:00:55;;;;;;;4.22;3.25;;;;;;;;;;4945225;29;20087;-67
2022/07/27 06:03:22;;;;;;;3.83;3.15;;;;;;;;;;4957311;29;20036;-66
2022/07/27 06:05:49;;;;;;;4.85;3.35;;;;;;;;;;4938640;29;20078;-67
2022/07/27 06:08:16;;;;;;;8.88;3.55;;;;;;;;;;4937832;29;20060;-67
2022/07/27 06:10:42;;;;;;;7.22;3.53;;;;;;;;;;4937562;29;20052;-67
2022/07/27 06:13:12;;;;;;;7.32;3.83;;;;;;;;;;4937445;29;20052;-68
2022/07/27 06:15:39;;;;;;;3.22;2.83;;;;;;;;;;4917199;29;20056;-67
2022/07/27 06:18:07;;;;;;;5.30;3.10;;;;;;;;;;4916255;29;20078;-67
2022/07/27 06:20:34;;;;;;;4.95;2.80;;;;;;;;;;4924149;29;20351;-67
2022/07/27 06:23:04;;;;;;;3.08;2.63;;;;;;;;;;4935299;29;20056;-66
2022/07/27 06:25:34;;;;;;;3.53;2.78;;;;;;;;;;4918382;29;20066;-67
2022/07/27 06:28:02;;;;;;;3.20;2.60;;;;;;;;;;4914408;29;20172;-66
2022/07/27 06:30:29;;;;;;;5.13;3.20;;;;;;;;;;4916053;29;20056;-67
2022/07/27 06:32:56;;;;;;;5.15;2.90;;;;;;;;;;4916098;29;20044;-66
2022/07/27 06:35:24;;;;;;;4.72;2.75;;;;;;;;;;4930088;29;20146;-66
2022/07/27 06:37:51;;;;;;;3.63;2.53;;;;;;;;;;4935104;29;20408;-66
2022/07/27 06:40:19;;;;;;;2.40;2.20;;;;;;;;;;4935172;29;20078;-67
2022/07/27 06:42:45;;;;;;;3.35;2.75;;;;;;;;;;4934771;29;20056;-66
2022/07/27 06:45:12;;;;;;;2.85;2.55;;;;;;;;;;4920847;29;20055;-66
2022/07/27 06:47:40;;;;;;;3.03;2.72;;;;;;;;;;4915759;29;20559;-65
2022/07/27 06:50:16;;;;;;;4.35;2.65;;;;;;;;;;4915975;29;20079;-65
2022/07/27 06:52:42;;;;;;;4.13;2.97;;;;;;;;;;4915743;29;20111;-65
2022/07/27 06:55:09;;;;;;;4.55;3.25;;;;;;;;;;4928521;29;20090;-65
2022/07/27 06:57:35;;;;;;;5.53;3.10;;;;;;;;;;4934958;29;20422;-65
2022/07/27 07:00:04;;;;;;;5.93;3.08;;;;;;;;;;4934480;29;20063;-65
2022/07/27 07:02:31;;;;;;;4.95;2.90;;;;;;;;;;4934812;29;20052;-65
2022/07/27 07:04:58;;;;;;;2.92;2.65;;;;;;;;;;4923036;29;20067;-66
2022/07/27 07:07:24;;;;;;;4.65;2.60;;;;;;;;;;4915115;29;20438;-65
2022/07/27 07:09:51;;;;;;;3.35;3.05;;;;;;;;;;4915327;29;20067;-66
2022/07/27 07:12:17;;;;;;;4.43;2.70;;;;;;;;;;4915393;29;20138;-66
2022/07/27 07:14:44;;;;;;;6.95;3.63;;;;;;;;;;4924980;29;20056;-65
2022/07/27 07:17:11;;;;;;;3.63;2.72;;;;;;;;;;4934457;29;20048;-65
2022/07/27 07:19:37;;;;;;;4.85;2.70;;;;;;;;;;4934005;29;20056;-65
2022/07/27 07:22:04;;;;;;;3.00;2.70;;;;;;;;;;4933831;29;20040;-65
2022/07/27 07:24:31;;;;;;;2.60;2.40;;;;;;;;;;4926622;29;20068;-65
2022/07/27 07:26:58;;;;;;;2.60;2.40;;;;;;;;;;4915479;29;20060;-66
2022/07/27 07:29:24;;;;;;;2.90;2.60;;;;;;;;;;4914941;29;20575;-66
2022/07/27 07:31:51;;;;;;;3.53;2.60;;;;;;;;;;4915464;29;20052;-68
2022/07/27 07:34:17;;;;;;;7.45;2.90;;;;;;;;;;4926923;29;20111;-68
2022/07/27 07:36:46;;;;;;;4.50;2.58;;;;;;;;;;4933882;29;20515;-66
2022/07/27 07:39:13;;;;;;;3.08;2.35;;;;;;;;;;4933719;29;20420;-66
2022/07/27 07:41:40;;;;;;;5.70;2.55;;;;;;;;;;4932430;29;20044;-66
2022/07/27 07:44:08;;;;;;;4.10;2.53;;;;;;;;;;4934173;29;20059;-65
2022/07/27 07:46:35;;;;;;;2.92;2.33;;;;;;;;;;4933310;29;20056;-66
2022/07/27 07:49:03;;;;;;;4.35;3.08;;;;;;;;;;4933503;29;20055;-65
2022/07/27 07:51:30;;;;;;;3.67;2.58;;;;;;;;;;4929934;29;20103;-65
2022/07/27 07:53:57;;;;;;;2.92;2.28;;;;;;;;;;4913445;29;20072;-66
2022/07/27 07:56:24;;;;;;;3.05;2.55;;;;;;;;;;4914724;29;20503;-66
2022/07/27 07:58:51;;;;;;;4.30;2.22;;;;;;;;;;4915107;29;20472;-68
2022/07/27 08:01:17;;;;;;;3.88;2.10;;;;;;;;;;4917517;29;20056;-65
2022/07/27 08:03:44;;;;;;;3.75;2.60;;;;;;;;;;4932587;29;20562;-66
2022/07/27 08:06:17;;;;;;;3.17;2.42;;;;;;;;;;4916368;29;20063;-66
2022/07/27 08:08:43;;;;;;;4.15;2.50;;;;;;;;;;4915650;29;20052;-65
2022/07/27 08:11:10;;;;;;;3.40;2.50;;;;;;;;;;4914761;29;20052;-65
2022/07/27 08:13:36;;;;;;;3.80;2.40;;;;;;;;;;4916234;29;20137;-65
2022/07/27 08:16:03;;;;;;;4.20;2.70;;;;;;;;;;4916362;29;20523;-65
2022/07/27 08:18:30;;;;;;;3.42;2.40;;;;;;;;;;4916225;29;20048;-66
2022/07/27 08:20:57;;;;;;;2.53;2.33;;;;;;;;;;4916301;29;20055;-66
2022/07/27 08:23:25;;;;;;;3.17;2.90;;;;;;;;;;4916366;29;20056;-66
2022/07/27 08:25:52;;;;;;;3.50;2.67;;;;;;;;;;4915006;29;20052;-66
2022/07/27 08:28:19;;;;;;;4.30;2.83;;;;;;;;;;4915970;29;20111;-65
2022/07/27 08:30:46;;;;;;;5.25;2.50;;;;;;;;;;4916193;29;20056;-66
2022/07/27 08:33:14;;;;;;;4.22;2.60;;;;;;;;;;4915945;29;20518;-65
2022/07/27 08:35:41;;;;;;;2.25;2.03;;;;;;;;;;4916013;29;20052;-64
2022/07/27 08:38:08;;;;;;;3.33;2.50;;;;;;;;;;4915787;29;20059;-65
2022/07/27 08:40:35;;;;;;;3.97;2.78;;;;;;;;;;4916098;29;20048;-65
2022/07/27 08:43:08;;;;;;;3.83;2.22;;;;;;;;;;4916136;29;20052;-64
2022/07/27 08:45:36;;;;;;;4.70;2.70;;;;;;;;;;4915938;29;20083;-65
2022/07/27 08:48:03;;;;;;;3.22;2.40;;;;;;;;;;4915390;29;20543;-65
2022/07/27 08:50:30;;;;;;;7.78;3.00;;;;;;;;;;4916160;29;20056;-65
2022/07/27 08:53:01;;;;;;;4.32;2.72;;;;;;;;;;4915796;29;20056;-66
2022/07/27 08:55:39;;;;;;;3.40;2.47;;;;;;;;;;4916027;29;20063;-65
2022/07/27 08:58:07;;;;;;;5.25;2.80;;;;;;;;;;4913932;29;20059;-65
2022/07/27 09:00:35;;;;;;;4.78;3.20;;;;;;;;;;4915681;29;20055;-65
2022/07/27 09:03:01;;;;;;;5.40;2.88;;;;;;;;;;4915944;29;20044;-66
2022/07/27 09:05:29;;;;;;;4.10;2.78;;;;;;;;;;4914552;29;20149;-65
2022/07/27 09:08:21;;;;;;;5.22;2.30;;;;;;;;;;4915632;29;20091;-65
2022/07/27 09:10:47;;;;;;;4.10;2.80;;;;;;;;;;4915727;29;20052;-65
2022/07/27 09:13:21;;;;;;;4.07;2.90;;;;;;;;;;4915945;29;20424;-66
2022/07/27 09:15:58;;;;;;;4.07;2.40;;;;;;;;;;4916224;29;20052;-66
2022/07/27 09:18:45;;;;;;;3.75;2.45;;;;;;;;;;4915194;29;20108;-66
2022/07/27 09:21:19;;;;;;;5.10;2.28;;;;;;;;;;4915646;29;20124;-65
2022/07/27 09:24:04;;;;;;;3.10;2.42;;;;;;;;;;4915399;29;20048;-65
2022/07/27 09:26:51;;;;;;;3.63;2.67;;;;;;;;;;4915502;29;20076;-66
2022/07/27 09:29:18;;;;;;;3.22;2.90;;;;;;;;;;4898511;29;20142;-65
2022/07/27 09:31:46;;;;;;;4.18;2.78;;;;;;;;;;4915326;29;20059;-65
2022/07/27 09:34:28;;;;;;;2.80;2.60;;;;;;;;;;4915288;29;20496;-66
2022/07/27 09:36:56;;;;;;;4.28;2.50;;;;;;;;;;4915926;29;20059;-66
2022/07/27 09:39:24;;;;;;;3.10;2.85;;;;;;;;;;4915213;29;20451;-65
2022/07/27 09:41:56;;;;;;;5.22;2.70;;;;;;;;;;4915438;29;20052;-65
2022/07/27 09:44:37;;;;;;;2.88;2.58;;;;;;;;;;4915302;29;20133;-65
2022/07/27 09:47:27;;;;;;;3.00;2.33;;;;;;;;;;4915511;29;20055;-65
2022/07/27 09:49:58;;;;;;;4.72;3.20;;;;;;;;;;4942392;23;20039;-66
2022/07/27 09:52:26;;;;;;;2.85;2.63;;;;;;;;;;4931936;29;20099;-65
2022/07/27 09:54:55;;;;;;;3.63;3.30;;;;;;;;;;4932991;29;20055;-64
2022/07/27 09:57:22;;;;;;;3.53;2.88;;;;;;;;;;4932906;29;20099;-65
2022/07/27 09:59:49;;;;;;;5.40;3.20;;;;;;;;;;4934053;29;20059;-65
2022/07/27 10:02:15;;;;;;;4.65;2.83;;;;;;;;;;4901808;29;20063;-65
2022/07/27 10:04:42;;;;;;;3.75;2.75;;;;;;;;;;4917081;29;20525;-65
2022/07/27 10:07:09;;;;;;;3.92;2.70;;;;;;;;;;4917056;29;20052;-65
2022/07/27 10:09:39;;;;;;;4.28;2.40;;;;;;;;;;4918316;29;20055;-65
2022/07/27 10:12:06;;;;;;;3.72;2.67;;;;;;;;;;4936416;29;20055;-66
2022/07/27 10:14:34;;;;;;;3.85;2.20;;;;;;;;;;4937622;29;20055;-65
2022/07/27 10:17:00;;;;;;;3.08;2.42;;;;;;;;;;4937558;29;20427;-65
2022/07/27 10:19:33;;;;;;;3.15;2.30;;;;;;;;;;4936006;29;20134;-65
2022/07/27 10:22:00;;;;;;;3.35;2.45;;;;;;;;;;4920719;29;20110;-64
2022/07/27 10:24:33;;;;;;;3.65;2.20;;;;;;;;;;4936049;29;20055;-65
2022/07/27 10:27:20;;;;;;;5.03;2.15;;;;;;;;;;4937368;29;20051;-65
2022/07/27 10:29:47;;;;;;;3.78;2.50;;;;;;;;;;4936949;29;20458;-66
2022/07/27 10:32:26;;;;;;;2.58;2.33;;;;;;;;;;4920152;29;20419;-64
2022/07/27 10:34:52;;;;;;;2.95;2.03;;;;;;;;;;4935865;29;20060;-65
2022/07/27 10:37:24;;;;;;;4.10;2.45;;;;;;;;;;4935975;29;20056;-65
2022/07/27 10:42:39;;;;;;;3.08;2.20;;;;;;;;;;4936201;29;20067;-66
2022/07/27 10:45:13;;;;;;;3.60;2.55;;;;;;;;;;4935834;29;20056;-65
2022/07/27 10:47:47;;;;;;;2.47;1.77;;;;;;;;;;4936893;29;20503;-64
2022/07/27 10:50:16;;;;;;;3.55;1.95;;;;;;;;;;4936659;29;20047;-65
2022/07/27 10:52:50;;;;;;;3.45;2.40;;;;;;;;;;4936610;29;20052;-65
2022/07/27 10:55:29;;;;;;;2.88;2.03;;;;;;;;;;4935515;29;20110;-66
2022/07/27 10:57:56;;;;;;;2.47;1.90;;;;;;;;;;4936509;29;20079;-65
2022/07/27 11:00:47;;;;;;;2.13;1.92;;;;;;;;;;4936631;29;20381;-64
2022/07/27 11:03:31;;;;;;;2.08;1.60;;;;;;;;;;4936566;29;20427;-65
2022/07/27 11:06:02;;;;;;;2.72;1.75;;;;;;;;;;4936724;29;20419;-65
2022/07/27 11:08:49;;;;;;;3.22;2.03;;;;;;;;;;4935532;29;20052;-65
2022/07/27 11:11:36;;;;;;;2.20;2.00;;;;;;;;;;4922259;29;20056;-65
2022/07/27 11:14:03;;;;;;;2.83;1.77;;;;;;;;;;4936573;29;20107;-66
2022/07/27 11:16:30;;;;;;;2.78;1.83;;;;;;;;;;4936478;29;20055;-65
2022/07/27 11:19:02;;;;;;;3.45;2.15;;;;;;;;;;4934572;29;20048;-65
2022/07/27 11:21:36;;;;;;;;;;;;;;;;;;4919370;29;20058;-65
2022/07/27 11:24:12;;;;;;;2.40;1.70;;;;;;;;;;4935065;29;19931;-65
2022/07/27 11:26:43;;;;;;;1.60;1.50;;;;;;;;;;4920209;29;20083;-65
2022/07/27 11:29:11;;;;;;;2.47;1.50;;;;;;;;;;4934793;29;20051;-66
2022/07/27 11:31:40;;;;;;;2.83;1.45;;;;;;;;;;4934860;29;20503;-65
2022/07/27 11:34:30;;;;;;;1.50;1.40;;;;;;;;;;4934902;29;20047;-65
2022/07/27 11:37:00;;;;;;;4.45;2.47;;;;;;;;;;4934710;29;20431;-66
2022/07/27 11:39:30;;;;;;;5.15;2.47;;;;;;;;;;4919589;29;20056;-66
2022/07/27 11:42:16;;;;;;;1.50;1.40;;;;;;;;;;4935779;29;20682;-66
2022/07/27 11:44:47;;;;;;;2.55;1.55;;;;;;;;;;4935887;29;20075;-67
2022/07/27 11:47:18;;;;;;;1.73;1.35;;;;;;;;;;4935723;29;20051;-65
2022/07/27 11:49:44;;;;;;;1.27;1.20;;;;;;;;;;4934420;29;20051;-66
2022/07/27 11:52:11;;;;;;;1.90;1.20;;;;;;;;;;4934649;29;20052;-65
2022/07/27 11:54:40;;;;;;;2.13;1.20;;;;;;;;;;4918643;29;20055;-65
2022/07/27 11:57:08;;;;;;;3.65;1.30;;;;;;;;;;4934454;29;20201;-65
2022/07/27 11:59:37;;;;;;;2.00;1.20;;;;;;;;;;4935043;29;20494;-65
2022/07/27 12:02:18;;;;;;;4.57;1.50;;;;;;;;;;4919028;29;20051;-66
2022/07/27 12:04:47;;;;;;;2.07;1.33;;;;;;;;;;4919181;29;20454;-65
2022/07/27 12:07:16;;;;;;;1.33;1.23;;;;;;;;;;4935596;29;20100;-66
2022/07/27 12:09:48;;;;;;;1.90;1.48;;;;;;;;;;4934240;29;20157;-66
2022/07/27 12:12:16;;;;;;;1.50;1.35;;;;;;;;;;4935154;29;20091;-66
2022/07/27 12:14:46;;;;;;;2.47;1.45;;;;;;;;;;4934225;29;20095;-65
2022/07/27 12:17:22;;;;;;;3.67;1.45;;;;;;;;;;4935302;29;20071;-66
2022/07/27 12:19:54;;;;;;;2.28;1.80;;;;;;;;;;4934902;29;20523;-67
2022/07/27 12:22:30;;;;;;;2.65;1.45;;;;;;;;;;4934176;29;20058;-65
2022/07/27 12:24:58;;;;;;;1.35;1.08;;;;;;;;;;4935104;29;20048;-66
2022/07/27 12:27:25;;;;;;;2.47;1.60;;;;;;;;;;4933966;29;20051;-65
2022/07/27 12:29:57;;;;;;;2.33;1.40;;;;;;;;;;4918099;29;20575;-66
2022/07/27 12:32:24;;;;;;;1.23;1.13;;;;;;;;;;4918345;29;20140;-66
2022/07/27 12:34:51;;;;;;;1.27;1.17;;;;;;;;;;4933743;29;20495;-65
2022/07/27 12:37:18;;;;;;;0.93;0.90;;;;;;;;;;4918091;29;20055;-66
2022/07/27 12:39:45;;;;;;;2.92;1.08;;;;;;;;;;4918012;29;20119;-65
2022/07/27 12:42:13;;;;;;;1.52;0.90;;;;;;;;;;4933712;29;20052;-65
2022/07/27 12:44:44;;;;;;;2.80;1.02;;;;;;;;;;4933752;29;20514;-66
2022/07/27 12:50:06;;;;;;;1.83;1.20;;;;;;;;;;4933412;29;20052;-65
2022/07/27 12:52:35;;;;;;;2.50;1.02;;;;;;;;;;4933773;29;20051;-65
2022/07/27 12:55:02;;;;;;;1.90;1.10;;;;;;;;;;4934664;29;20054;-66
2022/07/27 12:57:29;;;;;;;1.83;0.90;;;;;;;;;;4934755;29;20429;-66
2022/07/27 13:00:17;;;;;;;1.63;1.10;;;;;;;;;;4934739;29;20056;-66
2022/07/27 13:02:45;;;;;;;0.98;0.98;;;;;;;;;;4934674;29;20047;-66
2022/07/27 13:05:13;;;;;;;2.88;1.02;;;;;;;;;;4933639;29;20081;-65
2022/07/27 13:07:42;;;;;;;0.60;0.60;;;;;;;;;;4934959;29;20256;-66
2022/07/27 13:10:09;;;;;;;2.17;0.90;;;;;;;;;;4934478;29;20499;-66
2022/07/27 13:12:37;;;;;;;2.20;0.95;;;;;;;;;;4934488;29;20048;-66
2022/07/27 13:15:05;;;;;;;1.40;1.10;;;;;;;;;;4917867;29;20058;-65
2022/07/27 13:17:33;;;;;;;1.67;1.00;;;;;;;;;;4933557;29;20055;-66
2022/07/27 13:19:59;;;;;;;1.67;1.17;;;;;;;;;;4933204;29;20051;-65
2022/07/27 13:22:26;;;;;;;2.03;0.90;;;;;;;;;;4934579;29;20430;-66
2022/07/27 13:24:53;;;;;;;3.45;0.90;;;;;;;;;;4917705;29;20473;-66
2022/07/27 13:27:20;;;;;;;1.95;1.05;;;;;;;;;;4934382;29;20059;-65
2022/07/27 13:29:46;;;;;;;1.38;1.08;;;;;;;;;;4933116;29;20060;-66
2022/07/27 13:32:13;;;;;;;5.03;1.33;;;;;;;;;;4934560;29;20051;-66
2022/07/27 13:34:43;;;;;;;1.30;0.90;;;;;;;;;;4934386;29;20083;-65
2022/07/27 13:37:10;;;;;;;2.83;0.90;;;;;;;;;;4934507;29;20055;-65
2022/07/27 13:39:36;;;;;;;2.45;1.50;;;;;;;;;;4934119;29;20060;-65
2022/07/27 13:42:03;;;;;;;3.83;1.13;;;;;;;;;;4934262;29;20487;-65
2022/07/27 13:44:30;;;;;;;3.08;1.17;;;;;;;;;;4935092;29;20047;-64
2022/07/27 13:47:16;;;;;;;2.95;1.20;;;;;;;;;;4938100;29;20056;-66
2022/07/27 13:49:43;;;;;;;2.03;1.13;;;;;;;;;;4937498;29;20518;-65
2022/07/27 13:52:13;;;;;;;1.77;1.23;;;;;;;;;;4936713;29;20074;-66
2022/07/27 13:54:40;;;;;;;3.58;1.00;;;;;;;;;;4937814;29;20047;-65
2022/07/27 13:57:07;;;;;;;4.72;1.30;;;;;;;;;;4920885;29;20051;-66
2022/07/27 13:59:33;;;;;;;4.03;1.42;;;;;;;;;;4937652;29;20434;-65
2022/07/27 14:02:00;;;;;;;1.10;0.85;;;;;;;;;;4937866;29;20060;-65
2022/07/27 14:04:27;;;;;;;1.30;1.00;;;;;;;;;;4936428;29;20055;-66
2022/07/27 14:06:54;;;;;;;1.75;0.90;;;;;;;;;;4936488;29;20138;-66
2022/07/27 14:10:30;;;;;;;1.67;1.10;;;;;;;;;;4937573;29;20056;-65
2022/07/27 14:12:07;;;;;;;1.42;1.15;;;;;;;;;;4936540;29;20079;-65
2022/07/27 14:14:34;;;;;;;1.15;1.05;;;;;;;;;;4937375;29;20491;-64
2022/07/27 14:17:01;;;;;;;1.17;1.08;;;;;;;;;;4937431;29;20059;-65
2022/07/27 14:19:30;;;;;;;3.60;1.20;;;;;;;;;;4935768;29;20415;-65
2022/07/27 14:21:57;;;;;;;5.82;2.38;;;;;;;;;;4937543;29;20058;-65
2022/07/27 14:24:23;;;;;;;1.73;1.35;;;;;;;;;;4936211;29;20153;-66
2022/07/27 14:26:50;;;;;;;2.03;1.27;;;;;;;;;;4937791;29;20047;-65
2022/07/27 14:29:17;;;;;;;2.03;1.00;;;;;;;;;;4937632;29;20056;-65
2022/07/27 14:31:43;;;;;;;1.77;1.20;;;;;;;;;;4937382;29;20059;-65
2022/07/27 14:34:10;;;;;;;0.95;0.82;;;;;;;;;;4937452;29;20048;-66
2022/07/27 14:36:36;;;;;;;1.33;1.05;;;;;;;;;;4937161;29;20059;-65
2022/07/27 14:39:03;;;;;;;1.20;1.10;;;;;;;;;;4936808;29;20062;-65
2022/07/27 14:41:30;;;;;;;1.98;0.93;;;;;;;;;;4936950;29;20126;-66
2022/07/27 14:43:57;;;;;;;1.25;1.00;;;;;;;;;;4920190;29;20047;-64
2022/07/27 14:46:23;;;;;;;3.13;1.05;;;;;;;;;;4936810;29;20499;-64
2022/07/27 14:48:50;;;;;;;2.75;1.20;;;;;;;;;;4936952;29;20110;-66
2022/07/27 14:51:33;;;;;;;1.25;1.10;;;;;;;;;;4937039;29;20075;-66
2022/07/27 14:54:00;;;;;;;2.20;1.20;;;;;;;;;;4919807;29;20119;-65
2022/07/27 14:56:26;;;;;;;2.35;1.25;;;;;;;;;;4935604;29;20573;-65
2022/07/27 14:58:53;;;;;;;3.13;0.93;;;;;;;;;;4936473;29;20068;-65
2022/07/27 15:01:20;;;;;;;2.55;1.20;;;;;;;;;;4936813;29;20051;-64